Time;durP1;ratioP1;P1;durP2;ratioP2;P2;SDS_P1;SDS_P2;PMS_P1;PMS_P2;Temp;Humidity;BMP_temperature;BMP_pressure;BME280_temperature;BME280_humidity;BME280_pressure;Samples;Min_cycle;Max_cycle;Signal;HPM_P1;HPM_P2
2022/09/18 00:01:12;;;;;;;6.43;1.20;;;9.20;99.90;;;;;;4956128;29;20361;-74
2022/09/18 00:03:39;;;;;;;4.22;1.17;;;9.20;99.90;;;;;;4956498;29;20146;-74
2022/09/18 00:06:26;;;;;;;11.00;1.55;;;9.20;99.90;;;;;;4956634;29;20043;-76
2022/09/18 00:08:54;;;;;;;17.35;1.83;;;9.20;99.90;;;;;;4955552;28;20031;-74
2022/09/18 00:11:22;;;;;;;4.43;1.00;;;9.20;99.90;;;;;;4965923;28;20051;-73
2022/09/18 00:13:51;;;;;;;5.03;1.23;;;9.20;99.90;;;;;;4974965;28;20039;-74
2022/09/18 00:16:18;;;;;;;10.15;1.77;;;9.20;99.90;;;;;;4975043;28;20030;-74
2022/09/18 00:18:44;;;;;;;9.23;1.52;;;9.30;99.90;;;;;;4974926;28;20078;-74
2022/09/18 00:21:13;;;;;;;9.80;1.60;;;9.20;99.90;;;;;;4975149;28;20019;-74
2022/09/18 00:23:40;;;;;;;7.45;1.70;;;9.30;99.90;;;;;;4975325;28;20050;-75
2022/09/18 00:26:06;;;;;;;8.63;1.77;;;9.30;99.90;;;;;;4975084;28;20059;-75
2022/09/18 00:28:33;;;;;;;6.78;1.40;;;9.30;99.90;;;;;;4974457;28;20031;-74
2022/09/18 00:31:20;;;;;;;4.85;1.70;;;9.30;99.90;;;;;;4975309;28;20043;-76
2022/09/18 00:33:46;;;;;;;3.80;1.50;;;9.30;99.90;;;;;;4975117;28;20074;-74
2022/09/18 00:36:15;;;;;;;3.42;1.48;;;9.20;99.90;;;;;;4974962;28;20035;-77
2022/09/18 00:38:41;;;;;;;4.43;1.20;;;9.20;99.90;;;;;;4975068;28;20019;-75
2022/09/18 00:41:16;;;;;;;10.65;1.77;;;9.20;99.90;;;;;;4974373;28;20023;-74
2022/09/18 00:43:41;;;;;;;6.28;1.08;;;9.20;99.90;;;;;;4974371;28;20034;-74
2022/09/18 00:46:14;;;;;;;16.63;2.55;;;9.20;99.90;;;;;;4974949;28;20023;-74
2022/09/18 00:48:48;;;;;;;4.38;1.27;;;9.20;99.90;;;;;;4974960;28;20026;-75
2022/09/18 00:51:15;;;;;;;6.70;1.25;;;9.20;99.90;;;;;;4974243;28;20039;-73
2022/09/18 00:53:47;;;;;;;3.28;1.48;;;9.20;99.90;;;;;;4974556;28;20030;-74
2022/09/18 00:56:16;;;;;;;10.57;1.90;;;9.10;99.90;;;;;;4974603;28;20082;-75
2022/09/18 00:58:42;;;;;;;2.22;1.13;;;9.20;99.90;;;;;;4975051;28;20034;-72
2022/09/18 01:01:08;;;;;;;5.95;1.35;;;9.20;99.90;;;;;;4974878;28;20027;-74
2022/09/18 01:03:34;;;;;;;5.18;1.48;;;9.20;99.90;;;;;;4974389;28;20090;-74
2022/09/18 01:06:02;;;;;;;7.47;0.93;;;9.20;99.90;;;;;;4974759;28;20034;-73
2022/09/18 01:08:36;;;;;;;8.30;1.20;;;9.20;99.90;;;;;;4975875;28;20031;-74
2022/09/18 01:11:11;;;;;;;15.40;1.95;;;9.20;99.90;;;;;;4974055;28;20054;-74
2022/09/18 01:13:48;;;;;;;4.63;1.05;;;9.20;99.90;;;;;;4974635;28;20086;-75
2022/09/18 01:16:36;;;;;;;1.55;0.93;;;9.20;99.90;;;;;;4974659;28;20027;-74
2022/09/18 01:19:36;;;;;;;4.93;1.35;;;9.20;99.90;;;;;;4974489;28;20479;-73
2022/09/18 01:22:24;;;;;;;10.82;1.95;;;9.20;99.90;;;;;;4974268;28;20034;-75
2022/09/18 01:25:36;;;;;;;8.63;0.80;;;9.20;99.90;;;;;;4974012;28;20122;-74
2022/09/18 01:28:22;;;;;;;5.53;1.45;;;9.20;99.90;;;;;;4974678;28;20062;-74
2022/09/18 01:30:52;;;;;;;2.75;0.80;;;9.20;99.90;;;;;;4973689;28;20162;-73
2022/09/18 01:33:26;;;;;;;6.32;1.58;;;9.20;99.90;;;;;;4974105;28;20030;-71
2022/09/18 01:35:55;;;;;;;14.10;1.83;;;9.20;99.90;;;;;;4956869;28;20476;-73
2022/09/18 01:38:29;;;;;;;3.53;1.58;;;9.10;99.90;;;;;;4974039;28;20053;-73
2022/09/18 01:41:30;;;;;;;7.05;1.38;;;9.10;99.90;;;;;;4973658;28;20031;-72
2022/09/18 01:44:02;;;;;;;10.68;1.55;;;9.10;99.90;;;;;;4914143;29;20552;-75
2022/09/18 01:46:29;;;;;;;4.95;1.08;;;9.10;99.90;;;;;;4946882;28;20073;-73
2022/09/18 01:49:09;;;;;;;10.65;1.40;;;9.00;99.90;;;;;;4956594;28;20205;-74
2022/09/18 01:51:48;;;;;;;4.40;1.27;;;9.00;99.90;;;;;;4972140;28;20043;-73
2022/09/18 01:54:18;;;;;;;2.20;0.90;;;9.00;99.90;;;;;;4972088;28;20023;-73
2022/09/18 01:56:56;;;;;;;7.72;2.03;;;9.00;99.90;;;;;;4973743;28;20026;-73
2022/09/18 01:59:26;;;;;;;3.95;1.48;;;9.00;99.90;;;;;;4973188;28;20046;-72
2022/09/18 02:01:54;;;;;;;3.20;1.17;;;9.00;99.90;;;;;;4974159;28;20031;-71
2022/09/18 02:04:29;;;;;;;4.97;1.70;;;8.90;99.90;;;;;;4973915;28;20498;-72
2022/09/18 02:07:27;;;;;;;8.18;1.30;;;8.90;99.90;;;;;;4973676;28;20066;-72
2022/09/18 02:09:53;;;;;;;7.88;1.23;;;8.90;99.90;;;;;;4972733;28;20042;-74
2022/09/18 02:12:21;;;;;;;3.72;1.17;;;8.90;99.90;;;;;;4973041;28;20055;-70
2022/09/18 02:14:52;;;;;;;3.13;1.17;;;8.90;99.90;;;;;;4973350;28;20027;-73
2022/09/18 02:17:23;;;;;;;3.97;1.33;;;8.80;99.90;;;;;;4980162;28;20046;-72
2022/09/18 02:19:59;;;;;;;4.47;1.02;;;8.90;99.90;;;;;;4973391;28;20034;-74
2022/09/18 02:22:29;;;;;;;9.63;1.40;;;8.90;99.90;;;;;;4956399;28;20046;-73
2022/09/18 02:25:00;;;;;;;11.27;1.35;;;8.90;99.90;;;;;;4973057;28;20019;-73
2022/09/18 02:27:27;;;;;;;4.93;1.45;;;8.80;99.90;;;;;;4972930;28;20062;-72
2022/09/18 02:29:55;;;;;;;9.13;1.35;;;8.80;99.90;;;;;;4973308;28;20054;-74
2022/09/18 02:32:20;;;;;;;7.57;1.00;;;8.80;99.90;;;;;;4973014;28;20027;-73
2022/09/18 02:34:46;;;;;;;8.90;1.52;;;8.80;99.90;;;;;;4955416;28;20090;-71
2022/09/18 02:37:41;;;;;;;10.23;1.08;;;8.80;99.90;;;;;;4973389;28;20495;-73
2022/09/18 02:40:07;;;;;;;5.70;1.50;;;8.80;99.90;;;;;;4972390;28;20023;-73
2022/09/18 02:43:15;;;;;;;4.18;1.40;;;8.70;99.90;;;;;;4955818;28;20031;-73
2022/09/18 02:46:12;;;;;;;5.95;1.23;;;8.70;99.90;;;;;;4972870;28;20038;-75
2022/09/18 02:48:46;;;;;;;2.17;0.85;;;8.70;99.90;;;;;;4955541;28;20037;-75
2022/09/18 02:51:34;;;;;;;9.43;1.55;;;8.70;99.90;;;;;;4973263;28;20067;-74
2022/09/18 02:54:09;;;;;;;11.05;1.40;;;8.70;99.90;;;;;;4973126;28;20031;-74
2022/09/18 02:56:46;;;;;;;4.15;0.63;;;8.60;99.90;;;;;;4972991;28;20027;-72
2022/09/18 02:59:39;;;;;;;5.50;0.93;;;8.60;99.90;;;;;;4973020;28;20041;-75
2022/09/18 03:02:06;;;;;;;1.67;0.95;;;8.60;99.90;;;;;;4973090;28;20667;-75
2022/09/18 03:04:32;;;;;;;3.85;0.85;;;8.60;99.90;;;;;;4958204;28;20034;-73
2022/09/18 03:06:58;;;;;;;2.83;0.55;;;8.60;99.90;;;;;;4976909;28;20027;-73
2022/09/18 03:09:24;;;;;;;7.85;0.90;;;8.50;99.90;;;;;;4959241;28;20034;-72
2022/09/18 03:11:50;;;;;;;7.53;1.23;;;8.50;99.90;;;;;;4976545;28;20054;-73
2022/09/18 03:14:16;;;;;;;1.73;0.70;;;8.50;99.90;;;;;;4976696;28;20034;-72
2022/09/18 03:16:41;;;;;;;3.70;0.90;;;8.50;99.90;;;;;;4958977;28;20039;-73
2022/09/18 03:19:07;;;;;;;4.70;1.13;;;8.50;99.90;;;;;;4976890;28;20026;-74
2022/09/18 03:21:33;;;;;;;5.25;1.25;;;8.40;99.90;;;;;;4977200;28;20033;-74
2022/09/18 03:23:59;;;;;;;3.70;1.05;;;8.40;99.90;;;;;;4975656;28;20075;-74
2022/09/18 03:26:24;;;;;;;0.85;0.70;;;8.40;99.90;;;;;;4976528;28;20042;-74
2022/09/18 03:28:50;;;;;;;8.25;1.25;;;8.40;99.90;;;;;;4976356;28;20050;-74
2022/09/18 03:31:15;;;;;;;2.55;1.02;;;8.40;99.90;;;;;;4958774;28;20050;-72
2022/09/18 03:33:41;;;;;;;17.35;1.55;;;8.40;99.90;;;;;;4976678;28;20022;-74
2022/09/18 03:36:07;;;;;;;7.35;1.42;;;8.40;99.90;;;;;;4976415;28;20023;-73
2022/09/18 03:38:33;;;;;;;7.03;1.83;;;8.40;99.90;;;;;;4958902;28;20075;-75
2022/09/18 03:40:59;;;;;;;9.35;1.23;;;8.40;99.90;;;;;;4975999;28;20034;-75
2022/09/18 03:43:26;;;;;;;4.07;1.00;;;8.40;99.90;;;;;;4975999;28;20039;-74
2022/09/18 03:45:52;;;;;;;7.45;1.35;;;8.30;99.90;;;;;;4976292;28;20019;-76
2022/09/18 03:48:19;;;;;;;8.18;1.08;;;8.40;99.90;;;;;;4976226;28;20388;-74
2022/09/18 03:50:47;;;;;;;12.50;1.65;;;8.30;99.90;;;;;;4975507;28;20039;-73
2022/09/18 03:53:13;;;;;;;4.75;1.30;;;8.30;99.90;;;;;;4975623;28;20027;-74
2022/09/18 03:55:38;;;;;;;4.05;1.30;;;8.40;99.90;;;;;;4976163;28;20029;-75
2022/09/18 03:58:04;;;;;;;4.60;1.08;;;8.40;99.90;;;;;;4958565;28;20023;-74
2022/09/18 04:00:31;;;;;;;5.00;1.20;;;8.40;99.90;;;;;;4976032;28;20030;-74
2022/09/18 04:02:56;;;;;;;7.53;1.20;;;8.40;99.90;;;;;;4976061;28;20404;-74
2022/09/18 04:05:22;;;;;;;5.60;1.25;;;8.40;99.90;;;;;;4975532;28;20023;-74
2022/09/18 04:07:47;;;;;;;2.30;1.15;;;8.50;99.90;;;;;;4975818;28;21435;-74
2022/09/18 04:10:13;;;;;;;2.63;1.15;;;8.50;99.90;;;;;;4975549;28;20038;-74
2022/09/18 04:12:38;;;;;;;8.07;1.08;;;8.50;99.90;;;;;;4975439;28;20078;-72
2022/09/18 04:15:04;;;;;;;3.10;0.88;;;8.50;99.90;;;;;;4975068;28;20035;-73
2022/09/18 04:17:31;;;;;;;2.40;0.75;;;8.50;99.90;;;;;;4975522;28;20120;-73
2022/09/18 04:19:56;;;;;;;15.32;1.40;;;8.50;99.90;;;;;;4957842;28;20407;-74
2022/09/18 04:22:22;;;;;;;8.60;1.08;;;8.50;99.90;;;;;;4975650;28;20027;-74
2022/09/18 04:24:49;;;;;;;12.38;1.42;;;8.50;99.90;;;;;;4975576;28;20091;-73
2022/09/18 04:27:15;;;;;;;6.10;1.30;;;8.50;99.90;;;;;;4974359;28;20439;-72
2022/09/18 04:29:40;;;;;;;16.42;1.58;;;8.50;99.90;;;;;;4958037;28;20027;-71
2022/09/18 04:32:07;;;;;;;4.63;0.80;;;8.50;99.90;;;;;;4974435;28;20059;-74
2022/09/18 04:34:32;;;;;;;6.68;1.48;;;8.50;99.90;;;;;;4975057;28;20027;-74
2022/09/18 04:36:58;;;;;;;8.20;1.90;;;8.50;99.90;;;;;;4974579;28;20059;-74
2022/09/18 04:39:24;;;;;;;3.78;1.10;;;8.50;99.90;;;;;;4975186;28;20035;-72
2022/09/18 04:41:50;;;;;;;7.47;1.20;;;8.50;99.90;;;;;;4957923;28;20029;-73
2022/09/18 04:44:16;;;;;;;5.32;1.65;;;8.50;99.90;;;;;;4975573;28;20135;-73
2022/09/18 04:46:41;;;;;;;4.82;1.20;;;8.50;99.90;;;;;;4974818;28;20031;-73
2022/09/18 04:49:07;;;;;;;8.77;1.45;;;8.50;99.90;;;;;;4956948;28;20063;-74
2022/09/18 04:51:33;;;;;;;3.58;0.90;;;8.50;99.90;;;;;;4974638;28;20070;-75
2022/09/18 04:53:59;;;;;;;5.15;1.40;;;8.50;99.90;;;;;;4973993;28;20026;-76
2022/09/18 04:56:25;;;;;;;2.42;0.90;;;8.50;99.90;;;;;;4974300;28;20091;-74
2022/09/18 04:58:51;;;;;;;1.92;0.90;;;8.50;99.90;;;;;;4974672;28;20027;-76
2022/09/18 05:01:17;;;;;;;4.68;1.00;;;8.40;99.90;;;;;;4974265;28;20043;-76
2022/09/18 05:03:42;;;;;;;7.18;1.45;;;8.40;99.90;;;;;;4974421;28;20043;-76
2022/09/18 05:06:08;;;;;;;2.65;1.10;;;8.40;99.90;;;;;;4975420;28;20030;-77
2022/09/18 05:08:34;;;;;;;11.48;1.30;;;8.40;99.90;;;;;;4975064;28;20030;-75
2022/09/18 05:11:03;;;;;;;6.40;1.70;;;8.40;99.90;;;;;;4972911;28;20110;-75
2022/09/18 05:13:29;;;;;;;1.17;0.63;;;8.40;99.90;;;;;;4974531;28;20058;-76
2022/09/18 05:15:56;;;;;;;2.67;0.80;;;8.40;99.90;;;;;;4973472;28;20086;-75
2022/09/18 05:18:22;;;;;;;6.30;1.25;;;8.30;99.90;;;;;;4974454;28;20051;-73
2022/09/18 05:20:48;;;;;;;4.80;0.98;;;8.40;99.90;;;;;;4974780;28;20074;-75
2022/09/18 05:23:14;;;;;;;4.75;1.20;;;8.40;99.90;;;;;;4974464;28;20034;-71
2022/09/18 05:25:41;;;;;;;12.50;1.30;;;8.30;99.90;;;;;;4974643;28;20079;-72
2022/09/18 05:28:06;;;;;;;3.65;0.95;;;8.40;99.90;;;;;;4972943;28;20035;-75
2022/09/18 05:30:32;;;;;;;7.50;0.90;;;8.40;99.90;;;;;;4974544;28;20080;-72
2022/09/18 05:33:06;;;;;;;6.07;1.02;;;8.40;99.90;;;;;;4974383;28;20027;-72
2022/09/18 05:35:34;;;;;;;3.10;1.05;;;8.40;99.90;;;;;;4973765;28;20042;-73
2022/09/18 05:38:01;;;;;;;4.30;1.13;;;8.40;99.90;;;;;;4975072;28;20082;-70
2022/09/18 05:40:31;;;;;;;6.22;1.70;;;8.40;99.90;;;;;;4974096;28;20059;-70
2022/09/18 05:42:57;;;;;;;10.18;0.90;;;8.40;99.90;;;;;;4973865;28;20023;-71
2022/09/18 05:45:23;;;;;;;9.43;1.23;;;8.40;99.90;;;;;;4956620;28;20460;-70
2022/09/18 05:48:07;;;;;;;7.00;1.33;;;8.40;99.90;;;;;;4973288;28;20510;-71
2022/09/18 05:50:35;;;;;;;5.32;1.75;;;8.50;99.90;;;;;;4973733;28;20035;-70
2022/09/18 05:53:10;;;;;;;6.22;1.52;;;8.50;99.90;;;;;;4955324;28;20053;-73
2022/09/18 05:55:36;;;;;;;7.47;1.52;;;8.70;99.90;;;;;;4972438;28;20031;-73
2022/09/18 05:58:04;;;;;;;4.30;1.00;;;8.60;99.90;;;;;;4972313;28;20074;-73
2022/09/18 06:00:32;;;;;;;8.73;1.67;;;8.70;99.90;;;;;;4974888;28;20027;-73
2022/09/18 06:03:04;;;;;;;2.92;1.20;;;8.70;99.90;;;;;;4972888;28;20043;-75
2022/09/18 06:05:33;;;;;;;7.85;1.42;;;8.70;99.90;;;;;;4956518;28;20038;-75
2022/09/18 06:07:59;;;;;;;4.00;1.08;;;8.80;99.90;;;;;;4973018;28;20039;-74
2022/09/18 06:10:25;;;;;;;4.63;1.30;;;8.80;99.90;;;;;;4971355;28;20047;-73
2022/09/18 06:13:03;;;;;;;9.05;1.08;;;8.80;99.90;;;;;;4973299;28;20042;-74
2022/09/18 06:15:29;;;;;;;4.10;1.58;;;8.80;99.90;;;;;;4973450;28;20047;-72
2022/09/18 06:17:55;;;;;;;5.63;1.15;;;8.90;99.90;;;;;;4972843;28;20432;-74
2022/09/18 06:20:20;;;;;;;3.42;1.02;;;9.00;99.90;;;;;;4972710;28;20027;-74
2022/09/18 06:22:46;;;;;;;8.90;1.25;;;9.00;99.90;;;;;;4973564;28;20035;-75
2022/09/18 06:25:12;;;;;;;5.75;1.08;;;9.00;99.90;;;;;;4973122;28;20058;-74
2022/09/18 06:27:37;;;;;;;5.10;1.27;;;9.20;99.90;;;;;;4973568;28;20019;-78
2022/09/18 06:30:04;;;;;;;8.73;1.55;;;9.30;99.90;;;;;;4974544;28;20028;-74
2022/09/18 06:32:30;;;;;;;10.85;1.15;;;9.40;99.90;;;;;;4972167;28;20054;-75
2022/09/18 06:34:56;;;;;;;8.13;1.50;;;9.40;99.90;;;;;;4973733;28;20015;-74
2022/09/18 06:37:21;;;;;;;9.50;0.82;;;9.40;99.90;;;;;;4972975;28;20046;-75
2022/09/18 06:39:47;;;;;;;9.73;1.17;;;9.40;99.90;;;;;;4955326;28;20027;-75
2022/09/18 06:42:14;;;;;;;8.13;1.38;;;9.40;99.90;;;;;;4955450;28;20038;-76
2022/09/18 06:44:39;;;;;;;7.72;1.42;;;9.30;99.90;;;;;;4973450;28;20032;-73
2022/09/18 06:47:06;;;;;;;3.75;0.70;;;9.30;99.90;;;;;;4955005;28;20099;-76
2022/09/18 06:49:31;;;;;;;4.47;1.73;;;9.30;99.90;;;;;;4953383;28;20056;-75
2022/09/18 06:51:57;;;;;;;8.95;1.52;;;9.40;99.90;;;;;;4968305;28;20039;-74
2022/09/18 06:54:22;;;;;;;5.53;1.17;;;9.40;99.90;;;;;;4969970;28;20027;-76
2022/09/18 06:56:48;;;;;;;5.88;1.00;;;9.50;99.90;;;;;;4970254;28;20038;-76
2022/09/18 06:59:14;;;;;;;7.50;1.55;;;9.50;99.90;;;;;;4971440;28;20019;-75
2022/09/18 07:01:39;;;;;;;4.25;1.38;;;9.60;99.90;;;;;;4972820;28;20082;-76
2022/09/18 07:04:05;;;;;;;13.45;1.42;;;9.60;99.90;;;;;;4971220;28;20027;-76
2022/09/18 07:06:31;;;;;;;9.25;1.70;;;9.60;99.90;;;;;;4973918;28;20034;-75
2022/09/18 07:08:57;;;;;;;3.20;1.27;;;9.60;99.90;;;;;;4970093;28;20054;-74
2022/09/18 07:11:23;;;;;;;7.85;1.88;;;9.60;99.90;;;;;;4971779;28;20055;-74
2022/09/18 07:13:48;;;;;;;4.28;0.90;;;9.60;99.90;;;;;;4970980;28;20057;-77
2022/09/18 07:16:14;;;;;;;5.13;1.08;;;9.60;99.90;;;;;;4974326;28;20026;-74
2022/09/18 07:18:40;;;;;;;3.22;1.33;;;9.60;99.90;;;;;;4972195;28;20032;-74
2022/09/18 07:21:05;;;;;;;8.20;1.15;;;9.60;99.90;;;;;;4971409;28;20027;-74
2022/09/18 07:23:32;;;;;;;4.07;0.70;;;9.60;99.90;;;;;;4963568;28;20075;-74
2022/09/18 07:26:03;;;;;;;14.95;1.48;;;9.70;99.90;;;;;;4965116;28;20035;-74
2022/09/18 07:28:29;;;;;;;4.32;1.30;;;9.80;99.90;;;;;;4971656;28;20058;-73
2022/09/18 07:30:54;;;;;;;4.15;1.88;;;9.80;99.90;;;;;;4969675;28;20062;-73
2022/09/18 07:33:20;;;;;;;4.63;0.73;;;9.90;99.90;;;;;;4971021;28;20032;-73
2022/09/18 07:35:46;;;;;;;4.30;1.10;;;10.00;99.90;;;;;;4969743;28;20041;-72
2022/09/18 07:38:12;;;;;;;3.42;0.93;;;10.00;99.90;;;;;;4972007;28;20019;-74
2022/09/18 07:40:40;;;;;;;3.22;1.08;;;10.10;99.90;;;;;;4969458;28;20030;-73
2022/09/18 07:43:08;;;;;;;10.52;1.00;;;10.10;99.90;;;;;;4971364;28;20019;-73
2022/09/18 07:45:34;;;;;;;3.88;1.20;;;10.20;99.90;;;;;;4955170;28;20027;-72
2022/09/18 07:48:01;;;;;;;2.88;0.93;;;10.20;99.90;;;;;;4952794;28;20976;-72
2022/09/18 07:50:27;;;;;;;4.53;1.08;;;10.20;99.90;;;;;;4971558;28;20585;-74
2022/09/18 07:52:56;;;;;;;1.92;0.98;;;10.30;99.90;;;;;;4972617;28;20031;-76
2022/09/18 07:55:23;;;;;;;7.35;1.42;;;10.40;99.90;;;;;;4973774;28;20023;-74
2022/09/18 07:57:54;;;;;;;5.68;1.02;;;10.40;99.90;;;;;;4973192;28;20031;-73
2022/09/18 08:00:20;;;;;;;5.93;1.08;;;10.40;99.90;;;;;;4972468;28;20038;-73
2022/09/18 08:02:46;;;;;;;3.33;1.13;;;10.30;99.90;;;;;;4974084;28;20030;-72
2022/09/18 08:05:12;;;;;;;1.50;0.70;;;10.40;99.90;;;;;;4973460;28;20026;-75
2022/09/18 08:07:37;;;;;;;3.45;0.80;;;10.40;99.90;;;;;;4973923;28;20105;-75
2022/09/18 08:10:04;;;;;;;9.85;1.60;;;10.30;99.90;;;;;;4972881;28;20031;-74
2022/09/18 08:12:30;;;;;;;10.98;1.30;;;10.40;99.90;;;;;;4974494;28;20046;-72
2022/09/18 08:14:56;;;;;;;2.97;1.10;;;10.60;99.90;;;;;;4974017;28;20034;-73
2022/09/18 08:17:22;;;;;;;2.72;1.08;;;10.70;99.90;;;;;;4970954;28;20058;-74
2022/09/18 08:19:48;;;;;;;3.97;1.23;;;10.80;99.90;;;;;;4955085;28;20131;-75
2022/09/18 08:22:13;;;;;;;6.32;1.38;;;10.90;99.90;;;;;;4973791;28;20038;-74
2022/09/18 08:24:39;;;;;;;1.70;0.55;;;11.10;99.90;;;;;;4973903;28;20023;-74
2022/09/18 08:27:04;;;;;;;6.75;1.08;;;11.10;99.90;;;;;;4974169;28;20478;-74
2022/09/18 08:29:30;;;;;;;3.47;0.77;;;11.20;99.90;;;;;;4956982;28;20050;-77
2022/09/18 08:31:55;;;;;;;12.60;1.60;;;11.30;99.90;;;;;;4974212;28;20066;-78
2022/09/18 08:34:21;;;;;;;4.43;1.13;;;11.30;99.90;;;;;;4973511;28;20534;-75
2022/09/18 08:36:47;;;;;;;2.08;0.77;;;11.40;99.90;;;;;;4974133;28;20023;-72
2022/09/18 08:39:12;;;;;;;7.60;1.38;;;11.50;99.90;;;;;;4971801;28;20106;-71
2022/09/18 08:42:00;;;;;;;5.72;0.85;;;11.60;99.90;;;;;;4975068;28;20145;-74
2022/09/18 08:44:36;;;;;;;4.53;1.40;;;11.60;99.90;;;;;;4974358;28;20034;-75
2022/09/18 08:47:08;;;;;;;12.70;1.05;;;11.80;99.90;;;;;;4973997;28;20019;-74
2022/09/18 08:49:45;;;;;;;4.95;1.35;;;11.90;99.90;;;;;;4975709;28;20090;-72
2022/09/18 08:52:23;;;;;;;3.45;1.27;;;12.00;99.90;;;;;;4974933;28;20062;-71
2022/09/18 08:55:13;;;;;;;1.95;0.77;;;12.10;99.90;;;;;;4957552;28;20031;-73
2022/09/18 08:57:44;;;;;;;3.40;1.00;;;12.20;99.90;;;;;;4974518;28;20034;-71
2022/09/18 09:00:22;;;;;;;1.85;0.90;;;12.30;99.90;;;;;;4972301;28;20030;-74
2022/09/18 09:02:51;;;;;;;3.13;0.95;;;12.40;99.90;;;;;;4973397;28;20063;-74
2022/09/18 09:05:25;;;;;;;4.63;0.68;;;12.60;99.90;;;;;;4955805;28;20035;-72
2022/09/18 09:08:02;;;;;;;4.90;1.30;;;12.70;99.90;;;;;;4973795;28;20075;-74
2022/09/18 09:10:30;;;;;;;1.98;0.85;;;12.70;99.90;;;;;;4972043;28;20046;-74
2022/09/18 09:13:05;;;;;;;4.30;1.02;;;12.70;99.90;;;;;;4973154;28;20043;-70
2022/09/18 09:15:47;;;;;;;2.60;1.05;;;12.60;99.90;;;;;;4970940;28;20038;-73
2022/09/18 09:18:30;;;;;;;10.85;0.85;;;12.50;99.90;;;;;;4973324;28;20696;-69
2022/09/18 09:21:02;;;;;;;5.57;1.10;;;12.40;99.90;;;;;;4974437;28;20078;-74
2022/09/18 09:23:28;;;;;;;3.42;0.85;;;12.40;99.90;;;;;;4973110;28;20058;-72
2022/09/18 09:25:59;;;;;;;4.10;1.10;;;12.40;99.90;;;;;;4973313;28;20035;-73
2022/09/18 09:28:36;;;;;;;2.85;1.23;;;12.60;99.90;;;;;;4973679;28;20023;-73
2022/09/18 09:31:07;;;;;;;9.88;1.00;;;12.80;99.90;;;;;;4974460;28;20082;-70
2022/09/18 09:33:45;;;;;;;1.65;0.85;;;12.90;99.90;;;;;;4974105;28;20034;-71
2022/09/18 09:36:17;;;;;;;2.03;0.90;;;12.90;99.90;;;;;;4971897;28;20031;-77
2022/09/18 09:38:54;;;;;;;4.78;1.00;;;13.00;99.90;;;;;;4973539;28;20035;-73
2022/09/18 09:41:35;;;;;;;9.85;1.20;;;13.20;99.90;;;;;;4972127;28;20078;-74
2022/09/18 09:44:45;;;;;;;3.72;0.68;;;13.50;99.90;;;;;;4974031;28;20038;-75
2022/09/18 09:47:17;;;;;;;3.40;1.23;;;13.30;99.90;;;;;;4972835;28;20019;-73
2022/09/18 09:49:58;;;;;;;4.50;1.13;;;13.10;99.90;;;;;;4974003;28;20027;-76
2022/09/18 09:52:26;;;;;;;8.60;1.13;;;12.80;99.90;;;;;;4980605;28;20027;-72
2022/09/18 09:55:05;;;;;;;3.10;0.90;;;12.50;99.90;;;;;;4955607;28;20512;-76
2022/09/18 09:57:43;;;;;;;5.88;0.75;;;12.20;99.90;;;;;;4956310;28;20038;-75
2022/09/18 10:00:16;;;;;;;3.40;0.90;;;12.00;99.90;;;;;;4954420;28;20471;-75
2022/09/18 10:03:16;;;;;;;4.78;0.85;;;11.90;99.90;;;;;;4953597;28;20518;-74
2022/09/18 10:06:10;;;;;;;5.78;0.65;;;11.70;99.90;;;;;;4951814;28;20023;-74
2022/09/18 10:08:47;;;;;;;1.33;0.63;;;11.60;99.90;;;;;;4928121;28;20034;-76
2022/09/18 10:11:14;;;;;;;2.25;0.93;;;11.60;99.90;;;;;;4952610;29;20051;-78
2022/09/18 10:13:52;;;;;;;1.88;0.63;;;11.80;99.90;;;;;;4967425;28;20030;-75
2022/09/18 10:16:25;;;;;;;3.25;0.82;;;12.00;99.90;;;;;;4953687;29;20054;-78
2022/09/18 10:18:51;;;;;;;2.10;0.52;;;12.20;99.90;;;;;;4953358;29;20070;-77
2022/09/18 10:21:23;;;;;;;5.82;0.77;;;12.20;99.90;;;;;;4961041;28;20020;-78
2022/09/18 10:24:05;;;;;;;0.90;0.40;;;12.30;99.90;;;;;;4952519;29;20027;-79
2022/09/18 10:26:51;;;;;;;1.55;0.47;;;12.50;99.90;;;;;;4955158;29;20032;-76
2022/09/18 10:29:17;;;;;;;5.38;0.77;;;12.70;99.90;;;;;;4953252;29;20020;-77
2022/09/18 10:31:58;;;;;;;7.82;0.80;;;12.80;99.90;;;;;;4952838;29;20110;-74
2022/09/18 10:34:46;;;;;;;6.18;1.20;;;12.90;99.90;;;;;;4952663;29;20078;-77
2022/09/18 10:37:27;;;;;;;4.05;1.27;;;13.10;99.90;;;;;;4954702;29;20023;-77
2022/09/18 10:39:56;;;;;;;3.85;0.70;;;13.30;99.90;;;;;;4955012;29;20035;-75
2022/09/18 10:42:24;;;;;;;3.78;0.73;;;13.40;99.90;;;;;;4953000;29;20079;-76
2022/09/18 10:44:57;;;;;;;9.20;0.77;;;13.70;99.90;;;;;;4953917;29;20086;-77
2022/09/18 10:47:26;;;;;;;5.40;0.50;;;13.80;99.90;;;;;;4952526;29;20054;-76
2022/09/18 10:50:06;;;;;;;3.42;0.95;;;13.90;99.90;;;;;;4953731;29;20089;-75
2022/09/18 10:52:38;;;;;;;7.68;1.17;;;14.10;99.90;;;;;;4952675;29;20035;-74
2022/09/18 10:55:04;;;;;;;2.15;0.80;;;14.30;99.90;;;;;;4954178;29;20042;-74
2022/09/18 10:57:42;;;;;;;7.00;1.25;;;14.40;99.90;;;;;;4953383;29;20020;-74
2022/09/18 11:00:11;;;;;;;2.30;0.80;;;14.60;99.90;;;;;;4954035;29;20060;-74
2022/09/18 11:02:52;;;;;;;1.27;0.55;;;14.70;99.90;;;;;;4953904;29;20035;-72
2022/09/18 11:05:20;;;;;;;2.70;0.85;;;14.80;99.90;;;;;;4953481;29;20134;-71
2022/09/18 11:07:52;;;;;;;0.85;0.40;;;14.60;99.90;;;;;;4952687;29;20066;-71
2022/09/18 11:10:20;;;;;;;5.53;0.88;;;14.20;99.90;;;;;;4953414;28;20054;-71
2022/09/18 11:12:57;;;;;;;7.40;1.00;;;13.60;99.90;;;;;;4972462;28;20496;-72
2022/09/18 11:15:29;;;;;;;3.75;0.30;;;13.00;99.90;;;;;;4955744;28;20035;-73
2022/09/18 11:17:57;;;;;;;5.88;0.82;;;12.40;99.90;;;;;;4972576;28;20023;-73
2022/09/18 11:20:25;;;;;;;1.05;0.70;;;11.90;99.90;;;;;;4972663;28;20794;-76
2022/09/18 11:22:51;;;;;;;4.32;2.00;;;11.50;99.90;;;;;;4972706;28;20084;-75
2022/09/18 11:25:23;;;;;;;2.13;0.68;;;11.50;99.90;;;;;;4957362;28;20464;-75
2022/09/18 11:27:53;;;;;;;9.07;3.88;;;11.80;99.90;;;;;;4959285;28;20099;-75
2022/09/18 11:30:20;;;;;;;3.30;1.52;;;12.00;99.90;;;;;;4976586;28;20037;-76
2022/09/18 11:32:49;;;;;;;10.30;3.38;;;12.10;99.90;;;;;;4976099;28;20046;-77
2022/09/18 11:35:17;;;;;;;3.25;1.58;;;12.00;99.90;;;;;;4976117;28;20015;-77
2022/09/18 11:37:49;;;;;;;4.00;1.92;;;12.10;99.90;;;;;;4976459;28;20030;-77
2022/09/18 11:40:15;;;;;;;7.05;0.75;;;12.40;99.90;;;;;;4975567;28;20464;-75
2022/09/18 11:42:43;;;;;;;5.78;0.95;;;12.80;99.90;;;;;;4976254;28;20047;-77
2022/09/18 11:45:15;;;;;;;0.90;0.45;;;13.10;99.90;;;;;;4975751;28;20023;-75
2022/09/18 11:48:00;;;;;;;5.00;0.80;;;13.30;99.90;;;;;;4973025;28;20035;-74
2022/09/18 11:50:29;;;;;;;;;;;13.60;99.90;;;;;;4974813;28;20031;-75
2022/09/18 11:53:01;;;;;;;4.53;0.70;;;14.00;99.90;;;;;;4979426;28;19910;-75
2022/09/18 11:55:36;;;;;;;7.53;1.20;;;14.20;99.90;;;;;;4976834;28;20051;-76
2022/09/18 11:58:10;;;;;;;9.77;3.50;;;14.50;99.90;;;;;;4975641;28;20038;-75
2022/09/18 12:00:47;;;;;;;17.02;6.78;;;14.40;99.90;;;;;;4976049;28;20112;-75
2022/09/18 12:03:34;;;;;;;6.95;1.52;;;14.30;99.90;;;;;;4975801;28;20038;-75
2022/09/18 12:06:05;;;;;;;7.07;1.13;;;14.10;99.90;;;;;;4976238;28;20058;-72
2022/09/18 12:08:52;;;;;;;5.00;1.73;;;13.90;99.90;;;;;;4975631;28;20027;-73
2022/09/18 12:11:29;;;;;;;5.57;2.85;;;13.70;99.90;;;;;;4975627;28;20050;-75
2022/09/18 12:14:20;;;;;;;5.97;2.28;;;13.90;99.90;;;;;;4958440;28;20023;-74
2022/09/18 12:17:01;;;;;;;3.95;0.90;;;14.10;99.90;;;;;;4975535;28;20029;-75
2022/09/18 12:19:56;;;;;;;10.07;1.05;;;14.40;99.90;;;;;;4975979;28;20115;-71
2022/09/18 12:22:32;;;;;;;4.75;0.85;;;14.50;99.90;;;;;;4973416;28;20531;-70
2022/09/18 12:24:58;;;;;;;1.05;0.43;;;14.60;99.90;;;;;;4973248;28;20065;-77
2022/09/18 12:27:53;;;;;;;0.80;0.25;;;14.70;99.90;;;;;;4974514;28;20031;-71
2022/09/18 12:30:20;;;;;;;3.00;0.40;;;14.50;99.90;;;;;;4974969;28;20046;-71
2022/09/18 12:33:25;;;;;;;2.08;0.52;;;14.20;99.90;;;;;;4981728;28;20438;-73
2022/09/18 12:36:13;;;;;;;0.15;0.10;;;14.10;99.90;;;;;;4924632;28;20114;-71
2022/09/18 12:38:52;;;;;;;7.05;0.80;;;14.10;99.90;;;;;;4974769;28;20094;-72
2022/09/18 12:41:20;;;;;;;0.57;0.40;;;13.80;99.90;;;;;;4973663;28;20042;-73
2022/09/18 12:44:14;;;;;;;4.03;0.70;;;13.70;99.90;;;;;;4974298;28;20023;-71
2022/09/18 12:46:59;;;;;;;1.95;0.22;;;13.90;99.90;;;;;;4973926;28;20197;-71
2022/09/18 12:49:30;;;;;;;0.90;0.43;;;14.20;99.90;;;;;;4974061;28;20480;-72
2022/09/18 12:52:32;;;;;;;1.17;0.40;;;14.60;99.90;;;;;;4974749;28;20039;-74
2022/09/18 12:55:13;;;;;;;2.30;0.88;;;15.00;99.90;;;;;;4957261;28;20476;-75
2022/09/18 12:57:47;;;;;;;3.30;0.85;;;15.20;99.90;;;;;;4974102;28;20027;-76
2022/09/18 13:00:15;;;;;;;2.30;0.63;;;15.60;99.90;;;;;;4974452;28;20476;-74
2022/09/18 13:03:22;;;;;;;3.92;1.35;;;15.90;99.90;;;;;;4973948;28;20035;-74
2022/09/18 13:06:01;;;;;;;3.65;1.10;;;15.70;99.90;;;;;;4973341;28;20036;-71
2022/09/18 13:08:44;;;;;;;0.82;0.40;;;15.40;99.90;;;;;;4973990;28;20087;-72
2022/09/18 13:11:35;;;;;;;3.40;0.85;;;15.20;99.90;;;;;;4973296;28;20046;-71
2022/09/18 13:14:10;;;;;;;3.88;1.00;;;15.30;99.90;;;;;;4973352;28;20031;-76
2022/09/18 13:16:42;;;;;;;0.93;0.50;;;15.50;99.90;;;;;;4973803;28;20027;-72